createdAt,value
2022-08-12T00:00:33.965Z,43.50
2022-08-12T00:03:20.878Z,43.70
2022-08-12T00:06:09.371Z,43.80
2022-08-12T00:08:57.630Z,44.20
2022-08-12T00:11:45.555Z,44.40
2022-08-12T00:14:32.396Z,44.50
2022-08-12T00:17:18.338Z,44.80
2022-08-12T00:20:04.753Z,45.00
2022-08-12T00:22:59.426Z,45.20
2022-08-12T00:26:22.446Z,45.40
2022-08-12T00:29:12.327Z,46.10
2022-08-12T00:32:00.200Z,45.60
2022-08-12T00:34:49.313Z,45.90
2022-08-12T00:37:38.097Z,46.20
2022-08-12T00:40:26.865Z,46.30
2022-08-12T00:42:54.199Z,46.50
2022-08-12T00:45:22.220Z,46.80
2022-08-12T00:47:52.112Z,47.00
2022-08-12T00:50:21.847Z,47.30
2022-08-12T00:52:52.708Z,47.50
2022-08-12T00:55:21.099Z,47.80
2022-08-12T00:57:50.973Z,48.40
2022-08-12T01:00:24.461Z,48.20
2022-08-12T01:02:58.175Z,48.40
2022-08-12T01:05:45.102Z,48.50
2022-08-12T01:08:30.742Z,48.60
2022-08-12T01:11:17.057Z,48.30
2022-08-12T01:13:48.667Z,48.20
2022-08-12T01:16:22.799Z,48.60
2022-08-12T01:18:53.170Z,48.80
2022-08-12T01:22:09.326Z,49.10
2022-08-12T01:24:49.883Z,49.70
2022-08-12T01:27:20.042Z,49.40
2022-08-12T01:29:49.411Z,49.70
2022-08-12T01:32:19.257Z,49.90
2022-08-12T01:35:03.239Z,50.10
2022-08-12T01:37:37.117Z,50.40
2022-08-12T01:40:35.139Z,50.40
2022-08-12T01:42:59.450Z,50.60
2022-08-12T01:45:29.575Z,50.80
2022-08-12T01:48:29.390Z,50.90
2022-08-12T01:52:21.160Z,51.20
2022-08-12T01:54:38.568Z,51.80
2022-08-12T01:57:59.700Z,51.20
2022-08-12T02:00:55.278Z,51.90
2022-08-12T02:04:09.836Z,51.40
2022-08-12T02:07:15.701Z,52.10
2022-08-12T02:10:50.749Z,52.00
2022-08-12T02:13:50.063Z,52.40
2022-08-12T02:17:20.771Z,52.40
2022-08-12T02:20:35.222Z,52.60
2022-08-12T02:23:19.594Z,52.50
2022-08-12T02:25:47.649Z,52.40
2022-08-12T02:28:14.723Z,52.60
2022-08-12T02:30:42.713Z,52.90
2022-08-12T02:33:11.560Z,53.10
2022-08-12T02:35:39.929Z,53.20
2022-08-12T02:38:11.510Z,53.40
2022-08-12T02:40:44.677Z,53.60
2022-08-12T02:43:22.060Z,53.70
2022-08-12T02:46:10.461Z,53.80
2022-08-12T02:48:55.458Z,54.20
2022-08-12T02:51:35.948Z,54.20
2022-08-12T02:54:06.483Z,54.20
2022-08-12T02:56:40.621Z,54.00
2022-08-12T02:59:16.501Z,54.10
2022-08-12T03:01:54.279Z,54.20
2022-08-12T03:04:43.830Z,54.30
2022-08-12T03:08:00.256Z,54.30
2022-08-12T03:10:36.948Z,54.30
2022-08-12T03:13:08.258Z,54.20
2022-08-12T03:15:36.613Z,54.10
2022-08-12T03:18:27.558Z,54.80
2022-08-12T03:20:58.566Z,54.50
2022-08-12T03:23:30.373Z,54.30
2022-08-12T03:26:01.399Z,54.40
2022-08-12T03:28:50.845Z,54.40
2022-08-12T03:31:29.881Z,54.50
2022-08-12T03:34:11.055Z,54.50
2022-08-12T03:36:41.033Z,54.70
2022-08-12T03:39:16.703Z,54.60
2022-08-12T03:42:06.169Z,55.00
2022-08-12T03:44:59.277Z,55.00
2022-08-12T03:48:08.446Z,54.90
2022-08-12T03:50:56.016Z,55.20
2022-08-12T03:53:47.692Z,54.90
2022-08-12T03:56:33.736Z,55.10
2022-08-12T03:59:22.512Z,55.00
2022-08-12T04:01:57.973Z,55.10
2022-08-12T04:04:35.451Z,55.20
2022-08-12T04:07:08.065Z,55.30
2022-08-12T04:09:39.316Z,55.30
2022-08-12T04:12:26.475Z,55.40
2022-08-12T04:14:56.913Z,55.40
2022-08-12T04:17:26.858Z,55.30
2022-08-12T04:19:56.529Z,55.00
2022-08-12T04:22:31.018Z,55.20
2022-08-12T04:25:01.628Z,55.30
2022-08-12T04:27:32.435Z,55.40
2022-08-12T04:30:29.991Z,55.50
2022-08-12T04:32:49.908Z,55.60
2022-08-12T04:35:18.016Z,55.50
2022-08-12T04:37:59.194Z,55.60
2022-08-12T04:40:31.629Z,55.60
2022-08-12T04:43:01.081Z,55.50
2022-08-12T04:45:30.579Z,55.40
2022-08-12T04:47:57.618Z,55.30
2022-08-12T04:50:34.831Z,55.20
2022-08-12T04:53:06.876Z,55.40
2022-08-12T04:55:38.629Z,55.20
2022-08-12T04:58:09.566Z,55.10
2022-08-12T05:00:38.272Z,55.10
2022-08-12T05:03:07.392Z,54.90
2022-08-12T05:05:36.506Z,54.80
2022-08-12T05:08:06.838Z,54.70
2022-08-12T05:10:35.789Z,54.50
2022-08-12T05:13:09.569Z,54.40
2022-08-12T05:16:00.246Z,54.30
2022-08-12T05:18:29.360Z,54.20
2022-08-12T05:20:59.195Z,53.90
2022-08-12T05:23:26.749Z,53.80
2022-08-12T05:25:56.838Z,53.70
2022-08-12T05:28:27.294Z,53.50
2022-08-12T05:30:55.614Z,53.40
2022-08-12T05:33:31.546Z,53.20
2022-08-12T05:35:58.495Z,53.00
2022-08-12T05:38:44.139Z,52.80
2022-08-12T05:41:19.988Z,52.70
2022-08-12T05:43:53.587Z,53.00
2022-08-12T05:46:23.210Z,52.20
2022-08-12T05:48:54.167Z,52.00
2022-08-12T05:51:24.876Z,51.90
2022-08-12T05:54:06.645Z,51.70
2022-08-12T05:56:36.799Z,51.50
2022-08-12T05:59:09.268Z,51.20
2022-08-12T06:02:09.753Z,51.00
2022-08-12T06:04:25.346Z,50.70
2022-08-12T06:06:53.362Z,50.50
2022-08-12T06:09:22.727Z,50.20
2022-08-12T06:12:04.531Z,50.00
2022-08-12T06:14:36.673Z,49.90
2022-08-12T06:17:05.212Z,49.70
2022-08-12T06:20:27.893Z,49.40
2022-08-12T06:22:19.757Z,49.20
2022-08-12T06:24:48.373Z,49.10
2022-08-12T06:27:17.867Z,48.80
2022-08-12T06:30:09.806Z,48.50
2022-08-12T06:32:32.335Z,48.70
2022-08-12T06:35:27.087Z,47.70
2022-08-12T06:37:57.733Z,47.20
2022-08-12T06:40:51.878Z,46.70
2022-08-12T06:43:18.873Z,46.70
2022-08-12T06:45:47.697Z,46.30
2022-08-12T06:48:15.921Z,46.00
2022-08-12T06:50:44.440Z,45.70
2022-08-12T06:53:12.215Z,45.30
2022-08-12T06:55:56.752Z,45.00
2022-08-12T06:58:32.029Z,44.80
2022-08-12T07:01:00.322Z,44.80
2022-08-12T07:03:28.946Z,44.50
2022-08-12T07:06:11.804Z,44.20
2022-08-12T07:08:39.944Z,43.80
2022-08-12T07:11:10.227Z,43.70
2022-08-12T07:14:02.459Z,43.30
2022-08-12T07:16:52.327Z,43.10
2022-08-12T07:19:21.482Z,42.70
2022-08-12T07:21:57.941Z,42.00
2022-08-12T07:24:29.442Z,41.60
2022-08-12T07:26:57.298Z,41.30
2022-08-12T07:29:26.060Z,41.00
2022-08-12T07:32:13.324Z,40.90
2022-08-12T07:34:43.562Z,40.60
2022-08-12T07:37:10.898Z,40.00
2022-08-12T07:39:51.062Z,39.60
2022-08-12T07:42:24.978Z,39.10
2022-08-12T07:44:53.894Z,38.70
2022-08-12T07:47:20.911Z,38.10
2022-08-12T07:50:04.184Z,37.80
2022-08-12T07:52:34.655Z,37.30
2022-08-12T07:55:03.139Z,36.90
2022-08-12T07:57:34.419Z,36.20
2022-08-12T08:00:06.137Z,35.50
2022-08-12T08:02:37.137Z,34.70
2022-08-12T08:05:06.029Z,34.10
2022-08-12T08:07:33.108Z,33.30
2022-08-12T08:10:03.892Z,32.60
2022-08-12T08:12:49.884Z,31.90
2022-08-12T08:15:17.463Z,31.20
2022-08-12T08:18:02.841Z,30.30
2022-08-12T08:20:36.260Z,29.40
2022-08-12T08:23:07.996Z,29.20
2022-08-12T08:25:39.038Z,28.80
2022-08-12T08:28:11.254Z,28.30
2022-08-12T08:30:47.843Z,27.60
2022-08-12T08:34:01.528Z,26.90
2022-08-12T08:36:12.786Z,26.90
2022-08-12T08:38:53.111Z,26.40
2022-08-12T08:42:16.165Z,25.90
2022-08-12T08:44:36.563Z,25.60
2022-08-12T08:47:06.019Z,25.40
2022-08-12T08:49:37.443Z,24.70
2022-08-12T08:52:11.257Z,24.40
2022-08-12T08:54:39.546Z,23.70
2022-08-12T08:57:08.769Z,23.60
2022-08-12T08:59:36.362Z,23.20
2022-08-12T09:02:04.091Z,23.00
2022-08-12T09:05:11.973Z,22.70
2022-08-12T09:07:58.367Z,22.40
2022-08-12T09:13:23.629Z,21.90
2022-08-12T09:15:59.303Z,21.40
2022-08-12T09:18:33.365Z,20.80
2022-08-12T09:21:02.186Z,20.60
2022-08-12T09:24:01.179Z,20.60
2022-08-12T09:26:19.142Z,20.30
2022-08-12T09:28:53.008Z,20.20
2022-08-12T09:32:04.180Z,20.00
2022-08-12T09:34:25.635Z,19.50
2022-08-12T09:37:02.855Z,19.10
2022-08-12T09:40:02.487Z,18.80
2022-08-12T09:43:11.104Z,18.40
2022-08-12T09:46:06.693Z,18.00
2022-08-12T09:48:34.973Z,17.70
2022-08-12T09:51:10.790Z,17.40
2022-08-12T09:53:45.713Z,17.10
2022-08-12T09:57:02.823Z,16.90
2022-08-12T10:00:13.079Z,16.60
2022-08-12T10:02:43.900Z,16.30
2022-08-12T10:04:56.516Z,16.20
2022-08-12T10:07:24.891Z,16.20
2022-08-12T10:09:58.789Z,16.10
2022-08-12T10:13:07.769Z,16.10
2022-08-12T10:16:00.678Z,15.90
2022-08-12T10:18:26.267Z,15.90
2022-08-12T10:20:53.543Z,15.40
2022-08-12T10:23:20.470Z,15.00
2022-08-12T10:26:37.030Z,14.90
2022-08-12T10:30:38.784Z,14.70
2022-08-12T10:32:45.360Z,14.80
2022-08-12T10:35:15.494Z,14.60
2022-08-12T10:38:39.127Z,14.60
2022-08-12T10:40:34.288Z,14.60
2022-08-12T10:43:23.586Z,14.60
2022-08-12T10:45:51.742Z,14.20
2022-08-12T10:48:26.975Z,14.20
2022-08-12T10:51:51.493Z,14.10
2022-08-12T10:54:00.633Z,14.00
2022-08-12T10:56:34.490Z,13.90
2022-08-12T10:59:05.627Z,13.80
2022-08-12T11:04:18.824Z,13.80
2022-08-12T11:04:39.309Z,13.80
2022-08-12T11:08:33.821Z,13.70
2022-08-12T11:10:02.615Z,13.60
2022-08-12T11:12:57.257Z,13.40
2022-08-12T11:16:04.346Z,13.20
2022-08-12T11:18:18.631Z,13.10
2022-08-12T11:20:48.506Z,13.30
2022-08-12T11:23:25.305Z,13.30
2022-08-12T11:26:06.736Z,13.40
2022-08-12T11:28:37.067Z,13.50
2022-08-12T11:31:12.378Z,13.60
2022-08-12T11:34:05.952Z,13.90
2022-08-12T11:36:30.972Z,14.30
2022-08-12T11:38:58.091Z,14.90
2022-08-12T11:41:30.910Z,15.20
2022-08-12T11:44:36.749Z,15.20
2022-08-12T11:46:54.498Z,15.00
2022-08-12T11:49:32.066Z,15.10
2022-08-12T11:52:04.155Z,15.00
2022-08-12T11:54:39.220Z,14.90
2022-08-12T11:58:07.613Z,15.00
2022-08-12T12:02:53.735Z,14.50
2022-08-12T12:05:21.061Z,14.20
2022-08-12T12:08:40.430Z,13.90
2022-08-12T12:10:42.665Z,13.70
2022-08-12T12:13:11.707Z,13.50
2022-08-12T12:15:50.393Z,13.30
2022-08-12T12:18:30.854Z,13.20
2022-08-12T12:21:01.696Z,13.10
2022-08-12T12:23:36.378Z,13.20
2022-08-12T12:26:08.246Z,13.20
2022-08-12T12:28:39.761Z,13.10
2022-08-12T12:31:14.972Z,13.20
2022-08-12T12:33:57.715Z,13.30
2022-08-12T12:36:30.070Z,12.80
2022-08-12T12:38:58.464Z,12.70
2022-08-12T12:42:43.423Z,12.60
2022-08-12T12:47:28.918Z,12.40
2022-08-12T12:49:53.925Z,12.50
2022-08-12T12:52:21.860Z,12.60
2022-08-12T12:54:58.682Z,12.70
2022-08-12T12:57:36.306Z,12.90
2022-08-12T13:00:15.264Z,13.10
2022-08-12T13:02:52.864Z,13.50
2022-08-12T13:05:42.615Z,14.10
2022-08-12T13:08:39.864Z,14.40
2022-08-12T13:11:07.805Z,14.70
2022-08-12T13:14:07.187Z,14.90
2022-08-12T13:16:26.629Z,15.00
2022-08-12T13:18:54.881Z,14.90
2022-08-12T13:21:33.505Z,14.50
2022-08-12T13:24:10.290Z,14.40
2022-08-12T13:26:40.631Z,14.30
2022-08-12T13:29:11.146Z,14.30
2022-08-12T13:32:17.397Z,14.20
2022-08-12T13:34:34.415Z,14.40
2022-08-12T13:37:09.010Z,14.50
2022-08-12T13:39:39.468Z,14.80
2022-08-12T13:42:14.331Z,15.00
2022-08-12T13:44:42.510Z,15.20
2022-08-12T13:47:18.314Z,15.50
2022-08-12T13:49:54.417Z,15.90
2022-08-12T13:52:23.702Z,16.30
2022-08-12T13:54:56.046Z,16.70
2022-08-12T13:57:26.743Z,16.90
2022-08-12T13:59:55.373Z,17.10
2022-08-12T14:02:27.507Z,16.80
2022-08-12T14:04:56.599Z,16.50
2022-08-12T14:07:26.264Z,16.40
2022-08-12T14:10:16.262Z,16.50
2022-08-12T14:12:54.544Z,16.60
2022-08-12T14:15:37.186Z,16.70
2022-08-12T14:18:13.110Z,16.80
2022-08-12T14:20:51.827Z,16.90
2022-08-12T14:24:04.638Z,16.90
2022-08-12T14:26:12.241Z,16.80
2022-08-12T14:28:45.140Z,16.50
2022-08-12T14:31:29.622Z,16.40
2022-08-12T14:34:00.009Z,16.00
2022-08-12T14:36:32.469Z,15.70
2022-08-12T14:39:00.055Z,15.40
2022-08-12T14:41:36.916Z,15.30
2022-08-12T14:44:57.620Z,15.30
2022-08-12T14:47:07.737Z,15.30
2022-08-12T14:50:33.540Z,15.40
2022-08-12T14:53:50.684Z,15.70
2022-08-12T14:58:02.665Z,16.40
2022-08-12T15:00:52.268Z,16.60
2022-08-12T15:03:52.988Z,16.70
2022-08-12T15:06:44.581Z,16.90
2022-08-12T15:09:06.510Z,17.10
2022-08-12T15:11:54.792Z,17.10
2022-08-12T15:14:30.093Z,17.00
2022-08-12T15:17:00.771Z,17.00
2022-08-12T15:20:11.575Z,16.80
2022-08-12T15:22:37.726Z,16.70
2022-08-12T15:25:07.878Z,16.60
2022-08-12T15:28:03.876Z,16.30
2022-08-12T15:30:31.505Z,16.30
2022-08-12T15:32:59.269Z,16.30
2022-08-12T15:35:38.089Z,16.30
2022-08-12T15:38:21.204Z,16.40
2022-08-12T15:40:51.185Z,16.50
2022-08-12T15:43:56.967Z,16.40
2022-08-12T15:46:15.269Z,16.40
2022-08-12T15:48:49.077Z,16.40
2022-08-12T15:51:58.292Z,16.40
2022-08-12T15:54:35.180Z,16.40
2022-08-12T15:57:10.844Z,16.60
2022-08-12T16:00:00.678Z,16.50
2022-08-12T16:02:50.083Z,16.50
2022-08-12T16:06:11.253Z,16.50
2022-08-12T16:08:19.847Z,16.50
2022-08-12T16:10:53.117Z,16.60
2022-08-12T16:13:32.358Z,16.50
2022-08-12T16:16:23.025Z,16.50
2022-08-12T16:18:57.371Z,16.60
2022-08-12T16:21:51.181Z,16.70
2022-08-12T16:24:18.551Z,16.90
2022-08-12T16:26:51.314Z,17.00
2022-08-12T16:29:38.514Z,17.10
2022-08-12T16:32:24.623Z,17.10
2022-08-12T16:35:00.806Z,17.30
2022-08-12T16:38:25.684Z,17.40
2022-08-12T16:40:24.312Z,18.10
2022-08-12T16:43:02.208Z,17.80
2022-08-12T16:46:23.248Z,18.10
2022-08-12T16:48:34.102Z,18.30
2022-08-12T16:51:10.310Z,18.50
2022-08-12T16:53:45.166Z,18.80
2022-08-12T16:56:17.298Z,18.90
2022-08-12T16:58:46.962Z,19.00
2022-08-12T17:01:16.321Z,19.10
2022-08-12T17:04:04.666Z,19.80
2022-08-12T17:06:35.883Z,19.50
2022-08-12T17:09:08.839Z,19.80
2022-08-12T17:11:49.226Z,20.10
2022-08-12T17:14:23.190Z,20.30
2022-08-12T17:16:52.244Z,20.50
2022-08-12T17:22:12.023Z,21.10
2022-08-12T17:24:44.122Z,21.30
2022-08-12T17:27:22.170Z,21.60
2022-08-12T17:30:01.894Z,21.80
2022-08-12T17:32:33.393Z,22.00
2022-08-12T17:35:20.216Z,22.30
2022-08-12T17:37:50.992Z,22.60
2022-08-12T17:40:36.165Z,22.80
2022-08-12T17:43:55.558Z,23.30
2022-08-12T17:45:59.101Z,23.40
2022-08-12T17:48:34.369Z,23.60
2022-08-12T17:51:15.630Z,23.90
2022-08-12T17:54:05.996Z,24.40
2022-08-12T17:56:37.291Z,24.40
2022-08-12T17:59:12.457Z,24.60
2022-08-12T18:01:45.327Z,24.70
2022-08-12T18:04:21.992Z,25.50
2022-08-12T18:06:55.868Z,25.40
2022-08-12T18:09:31.831Z,25.60
2022-08-12T18:12:24.763Z,25.70
2022-08-12T18:15:01.099Z,25.90
2022-08-12T18:17:31.026Z,26.10
2022-08-12T18:20:07.843Z,26.50
2022-08-12T18:22:36.339Z,26.60
2022-08-12T18:26:15.609Z,26.70
2022-08-12T18:28:15.672Z,26.80
2022-08-12T18:30:52.426Z,26.90
2022-08-12T18:33:24.850Z,27.10
2022-08-12T18:35:55.576Z,27.20
2022-08-12T18:38:25.523Z,27.40
2022-08-12T18:41:22.034Z,27.60
2022-08-12T18:44:02.513Z,27.80
2022-08-12T18:46:55.567Z,28.10
2022-08-12T18:49:38.685Z,28.30
2022-08-12T18:52:11.652Z,28.40
2022-08-12T18:54:49.083Z,28.40
2022-08-12T18:58:07.467Z,28.60
2022-08-12T19:00:21.229Z,28.90
2022-08-12T19:02:54.781Z,29.00
2022-08-12T19:05:53.070Z,29.10
2022-08-12T19:08:13.903Z,29.30
2022-08-12T19:10:50.091Z,29.50
2022-08-12T19:13:39.546Z,29.90
2022-08-12T19:16:11.222Z,30.00
2022-08-12T19:18:44.724Z,30.30
2022-08-12T19:21:16.353Z,30.80
2022-08-12T19:24:04.823Z,30.80
2022-08-12T19:26:36.103Z,31.00
2022-08-12T19:29:07.442Z,31.10
2022-08-12T19:31:57.581Z,31.40
2022-08-12T19:38:03.230Z,32.00
2022-08-12T19:40:20.611Z,31.80
2022-08-12T19:43:13.410Z,32.10
2022-08-12T19:45:56.317Z,32.30
2022-08-12T19:48:33.074Z,32.60
2022-08-12T19:51:09.366Z,32.60
2022-08-12T19:53:57.745Z,32.80
2022-08-12T19:56:27.971Z,33.00
2022-08-12T19:59:18.755Z,33.30
2022-08-12T20:02:01.613Z,33.30
2022-08-12T20:04:37.313Z,33.40
2022-08-12T20:07:09.110Z,33.60
2022-08-12T20:09:52.919Z,33.70
2022-08-12T20:12:30.897Z,33.90
2022-08-12T20:15:05.178Z,34.10
2022-08-12T20:17:36.486Z,34.20
2022-08-12T20:20:21.105Z,34.40
2022-08-12T20:22:57.538Z,34.50
2022-08-12T20:25:28.520Z,34.60
2022-08-12T20:28:12.464Z,34.70
2022-08-12T20:30:53.309Z,34.80
2022-08-12T20:33:32.760Z,34.90
2022-08-12T20:36:41.399Z,34.60
2022-08-12T20:39:34.199Z,34.60
2022-08-12T20:41:58.777Z,35.40
2022-08-12T20:44:26.763Z,35.10
2022-08-12T20:47:06.221Z,35.30
2022-08-12T20:49:45.574Z,35.50
2022-08-12T20:52:18.330Z,35.70
2022-08-12T20:54:52.989Z,36.10
2022-08-12T20:57:23.937Z,36.10
2022-08-12T20:59:52.743Z,36.30
2022-08-12T21:02:24.554Z,36.30
2022-08-12T21:05:20.393Z,36.50
2022-08-12T21:07:51.982Z,37.10
2022-08-12T21:10:20.934Z,36.60
2022-08-12T21:12:48.817Z,36.70
2022-08-12T21:15:23.961Z,37.00
2022-08-12T21:18:10.787Z,37.10
2022-08-12T21:20:54.550Z,37.40
2022-08-12T21:23:22.880Z,37.50
2022-08-12T21:25:56.431Z,37.50
2022-08-12T21:28:27.726Z,37.70
2022-08-12T21:32:35.209Z,38.00
2022-08-12T21:34:07.585Z,38.00
2022-08-12T21:36:48.070Z,38.10
2022-08-12T21:39:22.849Z,38.40
2022-08-12T21:41:54.805Z,38.60
2022-08-12T21:45:44.558Z,38.70
2022-08-12T21:47:21.555Z,38.90
2022-08-12T21:50:04.117Z,38.90
2022-08-12T21:52:40.916Z,39.10
2022-08-12T21:55:18.404Z,39.00
2022-08-12T21:57:53.861Z,39.10
2022-08-12T22:00:33.160Z,39.20
2022-08-12T22:04:02.754Z,39.30
2022-08-12T22:06:20.303Z,39.40
2022-08-12T22:08:57.812Z,39.20
2022-08-12T22:11:41.122Z,39.20
2022-08-12T22:14:10.239Z,39.50
2022-08-12T22:16:47.061Z,39.50
2022-08-12T22:19:19.322Z,39.60
2022-08-12T22:21:53.067Z,39.70
2022-08-12T22:24:25.930Z,39.70
2022-08-12T22:26:55.862Z,39.80
2022-08-12T22:29:42.740Z,39.90
2022-08-12T22:32:11.923Z,40.00
2022-08-12T22:34:40.149Z,39.90
2022-08-12T22:37:11.200Z,40.00
2022-08-12T22:39:46.980Z,40.00
2022-08-12T22:42:35.868Z,40.00
2022-08-12T22:45:23.284Z,40.20
2022-08-12T22:47:54.998Z,40.10
2022-08-12T22:50:28.556Z,40.20
2022-08-12T22:53:15.540Z,40.30
2022-08-12T22:55:59.146Z,40.30
2022-08-12T22:58:33.944Z,40.40
2022-08-12T23:01:02.420Z,40.50
2022-08-12T23:03:48.646Z,40.50
2022-08-12T23:06:24.049Z,40.70
2022-08-12T23:08:55.327Z,40.80
2022-08-12T23:11:23.717Z,40.80
2022-08-12T23:14:01.899Z,41.00
2022-08-12T23:16:34.017Z,41.10
2022-08-12T23:19:10.851Z,41.20
2022-08-12T23:22:05.005Z,41.30
2022-08-12T23:24:55.434Z,41.50
2022-08-12T23:27:51.305Z,41.40
2022-08-12T23:30:32.104Z,41.50
2022-08-12T23:33:19.835Z,41.70
2022-08-12T23:36:02.591Z,41.80
2022-08-12T23:38:33.107Z,41.90
2022-08-12T23:41:03.592Z,42.00
2022-08-12T23:43:40.995Z,42.40
2022-08-12T23:46:19.201Z,42.50
2022-08-12T23:48:50.410Z,42.40
2022-08-12T23:51:25.147Z,42.70
2022-08-12T23:54:02.594Z,42.80
2022-08-12T23:56:32.811Z,42.90
2022-08-12T23:59:06.492Z,43.00
